Time,TemperatureF,DewpointF,PressureIn,WindDirection,WindDirectionDegrees,WindSpeedMPH,WindSpeedGustMPH,Humidity,HourlyPrecipIn,Conditions,Clouds,dailyrainin,SoftwareType,DateUTC
2013-01-07 00:03:00,44.4,42.8,30.19,ENE,61,0.0,1.0,94,0.00,,,0.09,meteohub,2013-01-07 08:03:00,
2013-01-07 00:08:00,44.2,42.6,30.19,ENE,61,0.0,0.0,94,0.00,,,0.00,meteohub,2013-01-07 08:08:00,
2013-01-07 00:13:00,44.2,42.6,30.19,ENE,61,0.0,0.0,94,0.00,,,0.00,meteohub,2013-01-07 08:13:00,
2013-01-07 00:18:00,44.2,42.6,30.19,ENE,61,0.0,0.0,94,0.00,,,0.00,meteohub,2013-01-07 08:18:00,
2013-01-07 00:24:00,44.2,42.6,30.19,ENE,61,0.0,0.0,94,0.00,,,0.00,meteohub,2013-01-07 08:24:00,
2013-01-07 00:29:00,44.4,42.8,30.19,ENE,61,0.0,0.0,94,0.00,,,0.00,meteohub,2013-01-07 08:29:00,
2013-01-07 00:34:00,44.8,43.2,30.20,ENE,61,0.0,0.0,94,0.01,,,0.01,meteohub,2013-01-07 08:34:00,
2013-01-07 00:39:00,45.0,43.3,30.19,ENE,61,0.0,2.0,94,0.01,,,0.01,meteohub,2013-01-07 08:39:00,
2013-01-07 00:44:00,45.0,43.3,30.19,ENE,61,0.0,2.0,94,0.01,,,0.01,meteohub,2013-01-07 08:44:00,
2013-01-07 00:49:00,45.0,43.3,30.19,ENE,61,0.0,2.0,94,0.01,,,0.01,meteohub,2013-01-07 08:49:00,
2013-01-07 00:54:00,44.6,43.0,30.19,ENE,61,0.0,0.0,94,0.01,,,0.01,meteohub,2013-01-07 08:54:00,
2013-01-07 00:59:00,44.2,42.3,30.19,ENE,61,0.0,0.0,93,0.01,,,0.01,meteohub,2013-01-07 08:59:00,
2013-01-07 01:04:00,44.1,42.4,30.19,ENE,61,0.0,0.0,94,0.01,,,0.01,meteohub,2013-01-07 09:04:00,
2013-01-07 01:09:00,44.1,42.4,30.19,ENE,61,0.0,0.0,94,0.01,,,0.01,meteohub,2013-01-07 09:09:00,
2013-01-07 01:14:00,44.1,42.4,30.19,ENE,61,0.0,0.0,94,0.01,,,0.01,meteohub,2013-01-07 09:14:00,
2013-01-07 01:19:00,44.1,42.4,30.19,ENE,61,0.0,0.0,94,0.01,,,0.01,meteohub,2013-01-07 09:19:00,
2013-01-07 01:24:00,44.1,42.4,30.19,ENE,61,0.0,1.0,94,0.01,,,0.01,meteohub,2013-01-07 09:24:00,
2013-01-07 01:30:00,44.2,42.6,30.19,ENE,61,0.0,1.0,94,0.01,,,0.01,meteohub,2013-01-07 09:30:00,
2013-01-07 01:35:00,44.2,42.6,30.19,ENE,61,0.0,1.0,94,0.00,,,0.01,meteohub,2013-01-07 09:35:00,
2013-01-07 01:40:00,44.2,42.6,30.19,ENE,61,0.0,1.0,94,0.00,,,0.01,meteohub,2013-01-07 09:40:00,
2013-01-07 01:45:00,44.2,42.6,30.19,ENE,61,0.0,0.0,94,0.00,,,0.01,meteohub,2013-01-07 09:45:00,
2013-01-07 01:50:00,44.1,42.4,30.19,ENE,61,0.0,0.0,94,0.00,,,0.01,meteohub,2013-01-07 09:50:00,
2013-01-07 01:55:00,43.9,42.3,30.19,ENE,61,0.0,0.0,94,0.00,,,0.01,meteohub,2013-01-07 09:55:00,
2013-01-07 02:00:00,43.7,42.1,30.19,ENE,61,0.0,0.0,94,0.00,,,0.01,meteohub,2013-01-07 10:00:00,
2013-01-07 02:05:00,43.9,42.3,30.18,ENE,61,0.0,0.0,94,0.00,,,0.01,meteohub,2013-01-07 10:05:00,
2013-01-07 02:10:00,43.9,42.3,30.18,ENE,61,0.0,0.0,94,0.00,,,0.01,meteohub,2013-01-07 10:10:00,
2013-01-07 02:15:00,43.9,42.3,30.19,ENE,61,0.0,0.0,94,0.00,,,0.01,meteohub,2013-01-07 10:15:00,
2013-01-07 02:20:00,43.9,42.3,30.19,ENE,61,0.0,0.0,94,0.00,,,0.01,meteohub,2013-01-07 10:20:00,
2013-01-07 02:25:00,43.7,42.1,30.19,ENE,61,0.0,0.0,94,0.00,,,0.01,meteohub,2013-01-07 10:25:00,
2013-01-07 02:30:00,43.7,42.1,30.20,ENE,61,0.0,0.0,94,0.00,,,0.01,meteohub,2013-01-07 10:30:00,
2013-01-07 02:35:00,43.5,41.9,30.20,ENE,61,0.0,0.0,94,0.00,,,0.01,meteohub,2013-01-07 10:35:00,
2013-01-07 02:40:00,43.3,41.7,30.21,ENE,61,0.0,0.0,94,0.00,,,0.01,meteohub,2013-01-07 10:40:00,
2013-01-07 02:45:00,43.5,41.9,30.21,ENE,61,0.0,0.0,94,0.00,,,0.01,meteohub,2013-01-07 10:45:00,
2013-01-07 02:50:00,43.9,42.3,30.22,ENE,61,0.0,0.0,94,0.00,,,0.01,meteohub,2013-01-07 10:50:00,
2013-01-07 02:55:00,43.9,42.3,30.22,ENE,61,0.0,0.0,94,0.00,,,0.01,meteohub,2013-01-07 10:55:00,
2013-01-07 03:00:00,44.1,42.4,30.22,ENE,61,0.0,0.0,94,0.00,,,0.01,meteohub,2013-01-07 11:00:00,
2013-01-07 03:06:00,44.1,42.4,30.22,ENE,61,0.0,0.0,94,0.00,,,0.01,meteohub,2013-01-07 11:06:00,
2013-01-07 03:11:00,44.2,42.6,30.22,ENE,61,0.0,0.0,94,0.00,,,0.01,meteohub,2013-01-07 11:11:00,
2013-01-07 03:16:00,44.4,42.8,30.21,ENE,61,0.0,0.0,94,0.00,,,0.01,meteohub,2013-01-07 11:16:00,
2013-01-07 03:21:00,44.4,42.8,30.21,ENE,61,0.0,0.0,94,0.00,,,0.01,meteohub,2013-01-07 11:21:00,
2013-01-07 03:26:00,44.8,43.2,30.21,ENE,61,0.0,2.0,94,0.00,,,0.01,meteohub,2013-01-07 11:26:00,
2013-01-07 03:31:00,44.8,43.2,30.21,ENE,61,0.0,3.0,94,0.00,,,0.01,meteohub,2013-01-07 11:31:00,
2013-01-07 03:36:00,45.0,43.3,30.20,ENE,61,0.0,3.0,94,0.00,,,0.01,meteohub,2013-01-07 11:36:00,
2013-01-07 03:41:00,44.8,42.8,30.20,ENE,61,0.0,1.0,93,0.00,,,0.01,meteohub,2013-01-07 11:41:00,
2013-01-07 03:46:00,44.8,42.8,30.21,ENE,61,0.0,0.0,93,0.00,,,0.01,meteohub,2013-01-07 11:46:00,
2013-01-07 03:51:00,44.8,42.8,30.20,ENE,61,0.0,2.0,93,0.00,,,0.01,meteohub,2013-01-07 11:51:00,
2013-01-07 03:56:00,45.0,43.0,30.20,ENE,61,0.0,2.0,93,0.00,,,0.01,meteohub,2013-01-07 11:56:00,
2013-01-07 04:01:00,44.8,42.8,30.20,ENE,61,0.0,2.0,93,0.00,,,0.01,meteohub,2013-01-07 12:01:00,
2013-01-07 04:06:00,44.6,42.6,30.20,ENE,61,0.0,0.0,93,0.00,,,0.01,meteohub,2013-01-07 12:06:00,
2013-01-07 04:12:00,44.4,42.4,30.20,ENE,61,2.0,2.0,93,0.00,,,0.01,meteohub,2013-01-07 12:12:00,
2013-01-07 04:17:00,44.2,42.3,30.20,ENE,61,0.0,3.0,93,0.00,,,0.01,meteohub,2013-01-07 12:17:00,
2013-01-07 04:22:00,44.2,42.3,30.20,ENE,61,0.0,3.0,93,0.00,,,0.01,meteohub,2013-01-07 12:22:00,
2013-01-07 04:27:00,44.2,42.3,30.20,ENE,61,0.0,3.0,93,0.00,,,0.01,meteohub,2013-01-07 12:27:00,
2013-01-07 04:32:00,44.4,42.4,30.20,ENE,61,0.0,0.0,93,0.00,,,0.01,meteohub,2013-01-07 12:32:00,
2013-01-07 04:37:00,44.4,42.4,30.20,ENE,61,0.0,0.0,93,0.00,,,0.01,meteohub,2013-01-07 12:37:00,
2013-01-07 04:42:00,44.2,42.3,30.21,ENE,61,0.0,0.0,93,0.00,,,0.01,meteohub,2013-01-07 12:42:00,
2013-01-07 04:47:00,44.2,42.3,30.21,ENE,61,0.0,0.0,93,0.00,,,0.01,meteohub,2013-01-07 12:47:00,
2013-01-07 04:52:00,44.2,42.3,30.21,ENE,61,0.0,0.0,93,0.00,,,0.01,meteohub,2013-01-07 12:52:00,
2013-01-07 04:57:00,44.2,42.3,30.21,ENE,61,0.0,0.0,93,0.00,,,0.01,meteohub,2013-01-07 12:57:00,
2013-01-07 05:02:00,44.2,42.3,30.21,ENE,61,0.0,0.0,93,0.00,,,0.01,meteohub,2013-01-07 13:02:00,
2013-01-07 05:07:00,44.1,42.1,30.21,ENE,61,0.0,0.0,93,0.00,,,0.01,meteohub,2013-01-07 13:07:00,
2013-01-07 05:12:00,44.2,42.3,30.20,ENE,61,0.0,3.0,93,0.00,,,0.01,meteohub,2013-01-07 13:12:00,
2013-01-07 05:17:00,44.2,42.3,30.19,ENE,61,0.0,3.0,93,0.00,,,0.01,meteohub,2013-01-07 13:17:00,
2013-01-07 05:22:00,44.2,42.3,30.19,ENE,61,0.0,3.0,93,0.00,,,0.01,meteohub,2013-01-07 13:22:00,
2013-01-07 05:27:00,44.1,42.1,30.19,ENE,61,0.0,0.0,93,0.00,,,0.01,meteohub,2013-01-07 13:27:00,
2013-01-07 05:32:00,44.1,42.1,30.19,ENE,61,0.0,1.0,93,0.00,,,0.01,meteohub,2013-01-07 13:32:00,
2013-01-07 05:37:00,44.1,42.1,30.20,ENE,61,0.0,1.0,93,0.00,,,0.01,meteohub,2013-01-07 13:37:00,
2013-01-07 05:42:00,44.1,42.1,30.20,ENE,61,0.0,1.0,93,0.00,,,0.01,meteohub,2013-01-07 13:42:00,
2013-01-07 05:48:00,44.2,42.3,30.20,ENE,61,0.0,0.0,93,0.00,,,0.01,meteohub,2013-01-07 13:48:00,
2013-01-07 05:53:00,44.1,41.9,30.19,ENE,61,0.0,0.0,92,0.00,,,0.01,meteohub,2013-01-07 13:53:00,
2013-01-07 05:58:00,43.9,41.9,30.19,ENE,61,2.0,0.0,93,0.00,,,0.01,meteohub,2013-01-07 13:58:00,
2013-01-07 06:03:00,44.1,42.1,30.19,ENE,61,2.0,3.0,93,0.00,,,0.01,meteohub,2013-01-07 14:03:00,
2013-01-07 06:08:00,44.2,42.3,30.20,ENE,61,0.0,4.0,93,0.00,,,0.01,meteohub,2013-01-07 14:08:00,
2013-01-07 06:13:00,44.4,42.4,30.21,ENE,61,0.0,4.0,93,0.00,,,0.01,meteohub,2013-01-07 14:13:00,
2013-01-07 06:18:00,44.6,42.6,30.21,ENE,61,0.0,4.0,93,0.00,,,0.01,meteohub,2013-01-07 14:18:00,
2013-01-07 06:23:00,44.6,42.6,30.21,ENE,61,0.0,3.0,93,0.00,,,0.01,meteohub,2013-01-07 14:23:00,
2013-01-07 06:29:00,44.4,42.3,30.21,ENE,61,0.0,0.0,92,0.00,,,0.01,meteohub,2013-01-07 14:29:00,
2013-01-07 06:34:00,44.4,42.4,30.21,ENE,61,0.0,0.0,93,0.00,,,0.01,meteohub,2013-01-07 14:34:00,
2013-01-07 06:39:00,44.2,42.1,30.21,ENE,61,0.0,0.0,92,0.00,,,0.01,meteohub,2013-01-07 14:39:00,
2013-01-07 06:44:00,44.1,41.9,30.22,ENE,61,0.0,0.0,92,0.00,,,0.01,meteohub,2013-01-07 14:44:00,
2013-01-07 06:49:00,44.1,41.9,30.22,ENE,61,0.0,0.0,92,0.00,,,0.01,meteohub,2013-01-07 14:49:00,
2013-01-07 06:54:00,43.9,41.7,30.22,ENE,61,0.0,1.0,92,0.00,,,0.01,meteohub,2013-01-07 14:54:00,
2013-01-07 06:59:00,43.9,41.9,30.22,ENE,61,0.0,1.0,93,0.00,,,0.01,meteohub,2013-01-07 14:59:00,
2013-01-07 07:04:00,43.9,41.9,30.22,ENE,61,0.0,0.0,93,0.00,,,0.01,meteohub,2013-01-07 15:04:00,
2013-01-07 07:09:00,43.9,41.9,30.22,ENE,61,3.0,3.0,93,0.00,,,0.01,meteohub,2013-01-07 15:09:00,
2013-01-07 07:14:00,44.2,42.3,30.22,ENE,61,4.0,4.0,93,0.00,,,0.01,meteohub,2013-01-07 15:14:00,
2013-01-07 07:19:00,44.4,42.4,30.22,ENE,61,0.0,4.0,93,0.00,,,0.01,meteohub,2013-01-07 15:19:00,
2013-01-07 07:24:00,44.2,42.3,30.22,ENE,61,0.0,5.0,93,0.00,,,0.01,meteohub,2013-01-07 15:24:00,
2013-01-07 07:29:00,44.2,42.3,30.22,ENE,61,2.0,5.0,93,0.00,,,0.01,meteohub,2013-01-07 15:29:00,
2013-01-07 07:34:00,44.2,42.3,30.22,NE,55,7.0,7.0,93,0.00,,,0.01,meteohub,2013-01-07 15:34:00,
2013-01-07 07:39:00,43.9,41.9,30.23,NE,44,3.0,7.0,93,0.00,,,0.01,meteohub,2013-01-07 15:39:00,
2013-01-07 07:44:00,43.7,42.1,30.24,NE,43,0.0,8.0,94,0.00,,,0.01,meteohub,2013-01-07 15:44:00,
2013-01-07 07:49:00,43.7,42.1,30.23,NE,43,0.0,8.0,94,0.00,,,0.01,meteohub,2013-01-07 15:49:00,
2013-01-07 07:54:00,43.9,42.6,30.23,NE,43,0.0,8.0,95,0.00,,,0.01,meteohub,2013-01-07 15:54:00,
2013-01-07 07:59:00,43.7,42.1,30.23,NE,43,0.0,7.0,94,0.00,,,0.01,meteohub,2013-01-07 15:59:00,
2013-01-07 08:04:00,43.7,42.1,30.23,NE,43,0.0,5.0,94,0.00,,,0.01,meteohub,2013-01-07 16:04:00,
2013-01-07 08:09:00,43.5,42.3,30.23,NE,43,0.0,0.0,95,0.00,,,0.01,meteohub,2013-01-07 16:09:00,
2013-01-07 08:14:00,43.7,42.4,30.22,NE,43,0.0,0.0,95,0.00,,,0.01,meteohub,2013-01-07 16:14:00,
2013-01-07 08:19:00,44.1,42.8,30.22,NE,43,0.0,0.0,95,0.00,,,0.01,meteohub,2013-01-07 16:19:00,
2013-01-07 08:25:00,44.1,42.8,30.21,NE,43,0.0,0.0,95,0.00,,,0.01,meteohub,2013-01-07 16:25:00,
2013-01-07 08:30:00,44.2,43.0,30.21,NE,43,0.0,1.0,95,0.00,,,0.01,meteohub,2013-01-07 16:30:00,
2013-01-07 08:35:00,44.2,43.0,30.23,NE,43,4.0,4.0,95,0.00,,,0.01,meteohub,2013-01-07 16:35:00,
2013-01-07 08:40:00,44.2,43.0,30.23,NE,43,3.0,6.0,95,0.00,,,0.01,meteohub,2013-01-07 16:40:00,
2013-01-07 08:45:00,44.1,42.8,30.23,NE,43,0.0,6.0,95,0.00,,,0.01,meteohub,2013-01-07 16:45:00,
2013-01-07 08:51:00,44.2,43.0,30.24,NE,43,0.0,6.0,95,0.00,,,0.01,meteohub,2013-01-07 16:51:00,
2013-01-07 08:56:00,44.2,43.0,30.24,NE,43,0.0,5.0,95,0.00,,,0.01,meteohub,2013-01-07 16:56:00,
2013-01-07 09:01:00,44.4,43.2,30.25,NE,43,2.0,4.0,95,0.00,,,0.01,meteohub,2013-01-07 17:01:00,
2013-01-07 09:06:00,44.4,43.2,30.26,NE,43,0.0,4.0,95,0.00,,,0.01,meteohub,2013-01-07 17:06:00,
2013-01-07 09:11:00,44.8,43.7,30.26,NE,43,1.0,4.0,96,0.00,,,0.01,meteohub,2013-01-07 17:11:00,
2013-01-07 09:16:00,45.0,43.9,30.27,NE,43,0.0,4.0,96,0.00,,,0.01,meteohub,2013-01-07 17:16:00,
2013-01-07 09:21:00,45.0,43.9,30.26,NE,43,0.0,3.0,96,0.00,,,0.01,meteohub,2013-01-07 17:21:00,
2013-01-07 09:26:00,45.1,44.1,30.25,NE,43,0.0,3.0,96,0.00,,,0.01,meteohub,2013-01-07 17:26:00,
2013-01-07 09:31:00,45.7,44.6,30.25,NE,43,0.0,1.0,96,0.00,,,0.01,meteohub,2013-01-07 17:31:00,
2013-01-07 09:36:00,45.9,44.8,30.25,NE,43,0.0,0.0,96,0.00,,,0.01,meteohub,2013-01-07 17:36:00,
2013-01-07 09:41:00,46.6,45.5,30.25,NE,43,0.0,0.0,96,0.00,,,0.01,meteohub,2013-01-07 17:41:00,
2013-01-07 09:46:00,46.8,45.7,30.26,NE,43,1.0,6.0,96,0.00,,,0.01,meteohub,2013-01-07 17:46:00,
2013-01-07 09:51:00,46.8,45.7,30.25,NE,43,3.0,6.0,96,0.00,,,0.01,meteohub,2013-01-07 17:51:00,
2013-01-07 09:56:00,46.9,45.9,30.25,NE,48,5.0,6.0,96,0.00,,,0.01,meteohub,2013-01-07 17:56:00,
2013-01-07 10:01:00,47.3,46.2,30.25,NE,51,2.0,6.0,96,0.00,,,0.01,meteohub,2013-01-07 18:01:00,
2013-01-07 10:06:00,47.3,46.2,30.26,NE,50,6.0,6.0,96,0.00,,,0.01,meteohub,2013-01-07 18:06:00,
2013-01-07 10:11:00,46.9,45.5,30.27,NE,49,0.0,7.0,95,0.00,,,0.01,meteohub,2013-01-07 18:11:00,
2013-01-07 10:16:00,46.9,45.5,30.27,NE,49,0.0,7.0,95,0.00,,,0.01,meteohub,2013-01-07 18:16:00,
2013-01-07 10:21:00,47.7,46.6,30.27,NE,49,0.0,7.0,96,0.00,,,0.01,meteohub,2013-01-07 18:21:00,
2013-01-07 10:26:00,48.4,47.3,30.27,NE,49,0.0,4.0,96,0.00,,,0.01,meteohub,2013-01-07 18:26:00,
2013-01-07 10:32:00,48.7,47.1,30.27,NE,49,0.0,3.0,94,0.00,,,0.01,meteohub,2013-01-07 18:32:00,
2013-01-07 10:37:00,49.3,47.3,30.28,NE,49,2.0,3.0,93,0.00,,,0.01,meteohub,2013-01-07 18:37:00,
2013-01-07 10:42:00,49.6,47.1,30.28,NE,51,0.0,4.0,91,0.00,,,0.01,meteohub,2013-01-07 18:42:00,
2013-01-07 10:47:00,50.2,47.3,30.27,NE,50,2.0,4.0,90,0.00,,,0.01,meteohub,2013-01-07 18:47:00,
2013-01-07 10:52:00,50.4,48.2,30.27,NE,50,0.0,4.0,92,0.00,,,0.01,meteohub,2013-01-07 18:52:00,
2013-01-07 10:57:00,50.7,47.3,30.25,ENE,66,2.0,4.0,88,0.00,,,0.01,meteohub,2013-01-07 18:57:00,
2013-01-07 11:02:00,51.1,47.3,30.26,SE,131,0.0,4.0,87,0.00,,,0.01,meteohub,2013-01-07 19:02:00,
2013-01-07 11:07:00,51.4,47.5,30.25,SE,134,0.0,5.0,86,0.00,,,0.01,meteohub,2013-01-07 19:07:00,
2013-01-07 11:12:00,52.0,47.3,30.25,SE,134,0.0,5.0,84,0.00,,,0.01,meteohub,2013-01-07 19:12:00,
2013-01-07 11:17:00,52.0,47.3,30.25,SSE,148,0.0,5.0,84,0.00,,,0.01,meteohub,2013-01-07 19:17:00,
2013-01-07 11:22:00,52.2,47.5,30.24,SSE,148,0.0,6.0,84,0.00,,,0.01,meteohub,2013-01-07 19:22:00,
2013-01-07 11:28:00,52.5,46.9,30.24,SSE,155,2.0,6.0,81,0.00,,,0.01,meteohub,2013-01-07 19:28:00,
2013-01-07 11:33:00,52.5,46.2,30.23,South,191,4.0,5.0,79,0.00,,,0.01,meteohub,2013-01-07 19:33:00,
2013-01-07 11:39:00,52.5,46.6,30.24,SW,226,7.0,7.0,80,0.00,,,0.01,meteohub,2013-01-07 19:39:00,
2013-01-07 11:44:00,52.9,47.3,30.24,WSW,244,4.0,7.0,81,0.00,,,0.01,meteohub,2013-01-07 19:44:00,
2013-01-07 11:49:00,53.1,46.8,30.23,WSW,244,0.0,9.0,79,0.00,,,0.01,meteohub,2013-01-07 19:49:00,
2013-01-07 11:54:00,53.1,46.4,30.23,WSW,252,6.0,9.0,78,0.00,,,0.01,meteohub,2013-01-07 19:54:00,
2013-01-07 11:59:00,52.9,45.9,30.22,WSW,255,6.0,10.0,77,0.00,,,0.01,meteohub,2013-01-07 19:59:00,
2013-01-07 12:04:00,52.7,46.0,30.22,WSW,257,6.0,10.0,78,0.00,,,0.01,meteohub,2013-01-07 20:04:00,
2013-01-07 12:09:00,52.7,46.0,30.22,WSW,254,4.0,10.0,78,0.00,,,0.01,meteohub,2013-01-07 20:09:00,
2013-01-07 12:14:00,52.5,46.2,30.22,West,261,6.0,10.0,79,0.00,,,0.01,meteohub,2013-01-07 20:14:00,
2013-01-07 12:20:00,52.5,46.2,30.22,West,264,4.0,8.0,79,0.00,,,0.01,meteohub,2013-01-07 20:20:00,
2013-01-07 12:26:00,52.7,46.8,30.22,WSW,256,5.0,11.0,80,0.00,,,0.01,meteohub,2013-01-07 20:26:00,
2013-01-07 12:31:00,52.9,46.6,30.22,West,264,4.0,11.0,79,0.00,,,0.01,meteohub,2013-01-07 20:31:00,
2013-01-07 12:36:00,53.1,46.8,30.22,West,264,2.0,11.0,79,0.00,,,0.01,meteohub,2013-01-07 20:36:00,
2013-01-07 12:41:00,53.2,46.9,30.21,West,264,0.0,10.0,79,0.00,,,0.01,meteohub,2013-01-07 20:41:00,
2013-01-07 12:46:00,53.2,46.6,30.21,West,264,0.0,7.0,78,0.00,,,0.01,meteohub,2013-01-07 20:46:00,
2013-01-07 12:51:00,53.4,47.1,30.20,West,264,0.0,6.0,79,0.00,,,0.01,meteohub,2013-01-07 20:51:00,
2013-01-07 12:56:00,54.0,47.7,30.20,West,261,0.0,5.0,79,0.00,,,0.01,meteohub,2013-01-07 20:56:00,
2013-01-07 13:01:00,54.5,48.2,30.21,West,261,0.0,5.0,79,0.00,,,0.01,meteohub,2013-01-07 21:01:00,
2013-01-07 13:07:00,54.9,47.8,30.21,West,260,0.0,6.0,77,0.00,,,0.01,meteohub,2013-01-07 21:07:00,
2013-01-07 13:12:00,54.7,47.7,30.20,West,260,4.0,6.0,77,0.00,,,0.01,meteohub,2013-01-07 21:12:00,
2013-01-07 13:17:00,54.9,48.2,30.20,WSW,256,3.0,8.0,78,0.00,,,0.01,meteohub,2013-01-07 21:17:00,
2013-01-07 13:22:00,55.0,48.4,30.20,WSW,251,3.0,8.0,78,0.00,,,0.01,meteohub,2013-01-07 21:22:00,
2013-01-07 13:27:00,54.9,48.2,30.19,WSW,252,0.0,8.0,78,0.00,,,0.01,meteohub,2013-01-07 21:27:00,
2013-01-07 13:32:00,54.9,48.7,30.19,WSW,252,0.0,8.0,80,0.00,,,0.01,meteohub,2013-01-07 21:32:00,
2013-01-07 13:37:00,55.2,48.7,30.19,WSW,252,5.0,7.0,79,0.00,,,0.01,meteohub,2013-01-07 21:37:00,
2013-01-07 13:42:00,55.2,48.7,30.19,WSW,254,0.0,6.0,79,0.00,,,0.01,meteohub,2013-01-07 21:42:00,
2013-01-07 13:47:00,55.6,49.5,30.19,WSW,254,2.0,6.0,80,0.00,,,0.01,meteohub,2013-01-07 21:47:00,
2013-01-07 13:52:00,55.8,49.6,30.19,West,260,3.0,6.0,80,0.00,,,0.01,meteohub,2013-01-07 21:52:00,
2013-01-07 13:57:00,55.2,49.5,30.19,WSW,252,5.0,8.0,81,0.00,,,0.01,meteohub,2013-01-07 21:57:00,
2013-01-07 14:02:00,55.2,49.1,30.19,WSW,252,0.0,8.0,80,0.00,,,0.01,meteohub,2013-01-07 22:02:00,
2013-01-07 14:07:00,55.4,49.6,30.19,WSW,252,0.0,8.0,81,0.00,,,0.01,meteohub,2013-01-07 22:07:00,
2013-01-07 14:12:00,55.4,49.6,30.19,WSW,252,4.0,6.0,81,0.00,,,0.01,meteohub,2013-01-07 22:12:00,
2013-01-07 14:17:00,55.4,49.6,30.19,WSW,253,0.0,6.0,81,0.00,,,0.01,meteohub,2013-01-07 22:17:00,
2013-01-07 14:22:00,55.2,49.8,30.19,WSW,253,0.0,5.0,82,0.00,,,0.01,meteohub,2013-01-07 22:22:00,
2013-01-07 14:27:00,55.8,50.0,30.19,WSW,253,4.0,5.0,81,0.00,,,0.01,meteohub,2013-01-07 22:27:00,
2013-01-07 14:32:00,55.8,50.0,30.19,WSW,253,0.0,5.0,81,0.00,,,0.01,meteohub,2013-01-07 22:32:00,
2013-01-07 14:37:00,55.9,50.2,30.19,WSW,254,0.0,5.0,81,0.00,,,0.01,meteohub,2013-01-07 22:37:00,
2013-01-07 14:42:00,56.5,50.4,30.19,WSW,254,0.0,5.0,80,0.00,,,0.01,meteohub,2013-01-07 22:42:00,
2013-01-07 14:47:00,56.5,50.4,30.18,WSW,253,0.0,4.0,80,0.00,,,0.01,meteohub,2013-01-07 22:47:00,
2013-01-07 14:52:00,56.7,50.5,30.18,WSW,253,0.0,2.0,80,0.00,,,0.01,meteohub,2013-01-07 22:52:00,
2013-01-07 14:57:00,56.7,50.5,30.19,WSW,253,0.0,4.0,80,0.00,,,0.01,meteohub,2013-01-07 22:57:00,
2013-01-07 15:02:00,56.5,50.4,30.18,WSW,254,0.0,4.0,80,0.00,,,0.01,meteohub,2013-01-07 23:02:00,
2013-01-07 15:07:00,56.5,51.1,30.18,WSW,254,2.0,5.0,82,0.00,,,0.01,meteohub,2013-01-07 23:07:00,
2013-01-07 15:12:00,56.7,51.3,30.18,WSW,253,0.0,5.0,82,0.00,,,0.01,meteohub,2013-01-07 23:12:00,
2013-01-07 15:17:00,57.0,51.6,30.18,WSW,253,0.0,5.0,82,0.00,,,0.01,meteohub,2013-01-07 23:17:00,
2013-01-07 15:22:00,56.8,51.1,30.18,WSW,253,0.0,3.0,81,0.00,,,0.01,meteohub,2013-01-07 23:22:00,
2013-01-07 15:27:00,56.7,51.6,30.18,WSW,253,0.0,1.0,83,0.00,,,0.01,meteohub,2013-01-07 23:27:00,
2013-01-07 15:32:00,56.8,51.4,30.18,WSW,253,0.0,1.0,82,0.00,,,0.01,meteohub,2013-01-07 23:32:00,
2013-01-07 15:37:00,56.7,51.3,30.18,WSW,253,0.0,1.0,82,0.00,,,0.01,meteohub,2013-01-07 23:37:00,
2013-01-07 15:42:00,56.5,51.6,30.19,WSW,253,0.0,1.0,84,0.00,,,0.01,meteohub,2013-01-07 23:42:00,
2013-01-07 15:47:00,56.3,51.4,30.18,WSW,253,0.0,1.0,84,0.00,,,0.01,meteohub,2013-01-07 23:47:00,
2013-01-07 15:52:00,56.1,51.1,30.18,WSW,253,0.0,1.0,83,0.00,,,0.01,meteohub,2013-01-07 23:52:00,
2013-01-07 15:57:00,56.5,51.4,30.18,WSW,253,0.0,0.0,83,0.00,,,0.01,meteohub,2013-01-07 23:57:00,
2013-01-07 16:02:00,56.7,51.3,30.18,WSW,253,0.0,0.0,82,0.00,,,0.01,meteohub,2013-01-08 00:02:00,
2013-01-07 16:07:00,56.7,51.6,30.18,WSW,253,0.0,0.0,83,0.00,,,0.01,meteohub,2013-01-08 00:07:00,
2013-01-07 16:12:00,56.5,51.6,30.18,WSW,253,0.0,0.0,84,0.00,,,0.01,meteohub,2013-01-08 00:12:00,
2013-01-07 16:17:00,56.5,51.4,30.19,WSW,253,0.0,0.0,83,0.00,,,0.01,meteohub,2013-01-08 00:17:00,
2013-01-07 16:22:00,56.5,51.4,30.19,WSW,253,0.0,0.0,83,0.00,,,0.01,meteohub,2013-01-08 00:22:00,
2013-01-07 16:27:00,56.5,51.4,30.19,WSW,253,0.0,0.0,83,0.00,,,0.01,meteohub,2013-01-08 00:27:00,
2013-01-07 16:32:00,56.7,51.3,30.18,WSW,253,0.0,0.0,82,0.00,,,0.01,meteohub,2013-01-08 00:32:00,
2013-01-07 16:37:00,56.7,51.3,30.19,WSW,253,0.0,0.0,82,0.00,,,0.01,meteohub,2013-01-08 00:37:00,
2013-01-07 16:42:00,56.8,51.4,30.19,WSW,253,0.0,0.0,82,0.00,,,0.01,meteohub,2013-01-08 00:42:00,
2013-01-07 16:47:00,56.7,51.3,30.18,WSW,253,0.0,0.0,82,0.00,,,0.01,meteohub,2013-01-08 00:47:00,
2013-01-07 16:52:00,56.5,51.4,30.18,WSW,253,0.0,0.0,83,0.00,,,0.01,meteohub,2013-01-08 00:52:00,
2013-01-07 16:57:00,56.5,51.6,30.18,WSW,253,0.0,0.0,84,0.00,,,0.01,meteohub,2013-01-08 00:57:00,
2013-01-07 17:02:00,56.1,51.4,30.18,WSW,253,0.0,0.0,84,0.00,,,0.01,meteohub,2013-01-08 01:02:00,
2013-01-07 17:07:00,55.9,51.3,30.19,WSW,253,0.0,0.0,84,0.00,,,0.01,meteohub,2013-01-08 01:07:00,
2013-01-07 17:12:00,55.8,51.3,30.19,WSW,253,0.0,0.0,85,0.00,,,0.01,meteohub,2013-01-08 01:12:00,
2013-01-07 17:17:00,55.6,51.4,30.19,WSW,253,0.0,0.0,86,0.00,,,0.01,meteohub,2013-01-08 01:17:00,
2013-01-07 17:22:00,55.2,51.1,30.19,WSW,253,0.0,0.0,86,0.00,,,0.01,meteohub,2013-01-08 01:22:00,
2013-01-07 17:27:00,55.0,51.3,30.19,WSW,253,0.0,0.0,87,0.00,,,0.01,meteohub,2013-01-08 01:27:00,
2013-01-07 17:32:00,54.7,50.9,30.18,WSW,253,0.0,0.0,87,0.00,,,0.01,meteohub,2013-01-08 01:32:00,
2013-01-07 17:37:00,54.5,50.7,30.18,WSW,253,0.0,0.0,87,0.00,,,0.01,meteohub,2013-01-08 01:37:00,
2013-01-07 17:42:00,54.1,50.7,30.18,WSW,253,0.0,0.0,88,0.00,,,0.01,meteohub,2013-01-08 01:42:00,
2013-01-07 17:47:00,54.1,50.7,30.18,WSW,253,0.0,0.0,88,0.00,,,0.01,meteohub,2013-01-08 01:47:00,
2013-01-07 17:52:00,54.0,50.5,30.18,WSW,253,0.0,0.0,88,0.00,,,0.01,meteohub,2013-01-08 01:52:00,
2013-01-07 17:57:00,53.8,50.5,30.18,WSW,253,0.0,0.0,89,0.00,,,0.01,meteohub,2013-01-08 01:57:00,
2013-01-07 18:02:00,53.8,50.5,30.18,WSW,253,0.0,0.0,89,0.00,,,0.01,meteohub,2013-01-08 02:02:00,
2013-01-07 18:07:00,53.4,50.2,30.18,WSW,253,0.0,0.0,89,0.00,,,0.01,meteohub,2013-01-08 02:07:00,
2013-01-07 18:12:00,53.4,50.2,30.18,WSW,253,0.0,0.0,89,0.00,,,0.01,meteohub,2013-01-08 02:12:00,
2013-01-07 18:17:00,53.2,50.0,30.18,WSW,253,0.0,0.0,89,0.00,,,0.01,meteohub,2013-01-08 02:17:00,
2013-01-07 18:22:00,53.1,49.8,30.18,WSW,253,0.0,0.0,89,0.00,,,0.01,meteohub,2013-01-08 02:22:00,
2013-01-07 18:27:00,52.9,50.0,30.17,WSW,253,0.0,0.0,90,0.00,,,0.01,meteohub,2013-01-08 02:27:00,
2013-01-07 18:32:00,52.9,50.0,30.17,WSW,253,0.0,0.0,90,0.00,,,0.01,meteohub,2013-01-08 02:32:00,
2013-01-07 18:37:00,52.5,49.6,30.17,WSW,253,0.0,0.0,90,0.00,,,0.01,meteohub,2013-01-08 02:37:00,
2013-01-07 18:42:00,52.5,49.6,30.17,WSW,253,0.0,0.0,90,0.00,,,0.01,meteohub,2013-01-08 02:42:00,
2013-01-07 18:48:00,52.3,49.5,30.17,WSW,253,0.0,0.0,90,0.00,,,0.01,meteohub,2013-01-08 02:48:00,
2013-01-07 18:53:00,52.3,49.5,30.17,WSW,253,0.0,0.0,90,0.00,,,0.01,meteohub,2013-01-08 02:53:00,
2013-01-07 18:58:00,52.2,49.3,30.17,WSW,253,0.0,0.0,90,0.00,,,0.01,meteohub,2013-01-08 02:58:00,
2013-01-07 19:03:00,52.2,49.3,30.17,WSW,253,0.0,0.0,90,0.00,,,0.01,meteohub,2013-01-08 03:03:00,
2013-01-07 19:08:00,52.0,49.1,30.18,WSW,253,0.0,0.0,90,0.00,,,0.01,meteohub,2013-01-08 03:08:00,
2013-01-07 19:13:00,52.0,49.1,30.18,WSW,253,0.0,0.0,90,0.00,,,0.01,meteohub,2013-01-08 03:13:00,
2013-01-07 19:18:00,52.0,49.1,30.18,WSW,253,0.0,0.0,90,0.00,,,0.01,meteohub,2013-01-08 03:18:00,
2013-01-07 19:23:00,52.0,49.5,30.18,WSW,253,0.0,0.0,91,0.00,,,0.01,meteohub,2013-01-08 03:23:00,
2013-01-07 19:28:00,51.8,49.3,30.18,WSW,253,0.0,2.0,91,0.00,,,0.01,meteohub,2013-01-08 03:28:00,
2013-01-07 19:34:00,51.6,48.7,30.18,WSW,253,0.0,2.0,90,0.00,,,0.01,meteohub,2013-01-08 03:34:00,
2013-01-07 19:39:00,51.6,49.1,30.18,WSW,253,0.0,0.0,91,0.00,,,0.01,meteohub,2013-01-08 03:39:00,
2013-01-07 19:44:00,51.4,48.9,30.18,WSW,253,0.0,0.0,91,0.00,,,0.01,meteohub,2013-01-08 03:44:00,
2013-01-07 19:49:00,51.3,48.7,30.19,WSW,253,0.0,0.0,91,0.00,,,0.01,meteohub,2013-01-08 03:49:00,
2013-01-07 19:54:00,51.3,48.7,30.18,WSW,253,0.0,0.0,91,0.00,,,0.01,meteohub,2013-01-08 03:54:00,
2013-01-07 19:59:00,51.1,48.9,30.18,WSW,253,0.0,0.0,92,0.00,,,0.01,meteohub,2013-01-08 03:59:00,
2013-01-07 20:04:00,51.1,48.9,30.18,WSW,253,0.0,0.0,92,0.00,,,0.01,meteohub,2013-01-08 04:04:00,
2013-01-07 20:09:00,50.9,48.7,30.18,WSW,253,0.0,0.0,92,0.00,,,0.01,meteohub,2013-01-08 04:09:00,
2013-01-07 20:14:00,50.9,48.7,30.18,WSW,253,0.0,0.0,92,0.00,,,0.01,meteohub,2013-01-08 04:14:00,
2013-01-07 20:19:00,50.9,48.7,30.18,WSW,253,0.0,0.0,92,0.00,,,0.01,meteohub,2013-01-08 04:19:00,
2013-01-07 20:24:00,50.9,48.7,30.18,WSW,253,0.0,1.0,92,0.00,,,0.01,meteohub,2013-01-08 04:24:00,
2013-01-07 20:29:00,50.9,48.4,30.19,WSW,253,0.0,1.0,91,0.00,,,0.01,meteohub,2013-01-08 04:29:00,
2013-01-07 20:34:00,50.9,48.4,30.19,WSW,253,0.0,1.0,91,0.00,,,0.01,meteohub,2013-01-08 04:34:00,
2013-01-07 20:39:00,50.9,48.0,30.19,WSW,253,0.0,0.0,90,0.00,,,0.01,meteohub,2013-01-08 04:39:00,
2013-01-07 20:44:00,50.9,48.0,30.19,WSW,253,0.0,0.0,90,0.00,,,0.01,meteohub,2013-01-08 04:44:00,
2013-01-07 20:49:00,50.7,47.8,30.19,WSW,253,0.0,0.0,90,0.00,,,0.01,meteohub,2013-01-08 04:49:00,
2013-01-07 20:54:00,50.7,47.7,30.19,WSW,253,0.0,0.0,89,0.00,,,0.01,meteohub,2013-01-08 04:54:00,
2013-01-07 20:59:00,50.5,47.7,30.19,WSW,253,0.0,0.0,90,0.00,,,0.01,meteohub,2013-01-08 04:59:00,
2013-01-07 21:00:00,50.5,47.7,30.19,WSW,253,0.0,0.0,90,0.00,,,0.01,meteohub,2013-01-08 05:00:00,
2013-01-07 21:02:00,50.5,47.7,30.19,WSW,253,0.0,0.0,90,0.00,,,0.01,meteohub,2013-01-08 05:02:00,
2013-01-07 21:03:00,50.5,47.7,30.19,WSW,253,0.0,0.0,90,0.00,,,0.01,meteohub,2013-01-08 05:03:00,
2013-01-07 21:04:00,50.5,47.7,30.19,WSW,253,0.0,0.0,90,0.00,,,0.01,meteohub,2013-01-08 05:04:00,
2013-01-07 21:09:00,50.4,47.5,30.19,WSW,253,0.0,0.0,90,0.00,,,0.01,meteohub,2013-01-08 05:09:00,
2013-01-07 21:14:00,50.4,47.5,30.19,WSW,253,0.0,0.0,90,0.00,,,0.01,meteohub,2013-01-08 05:14:00,
2013-01-07 21:20:00,50.4,47.5,30.19,WSW,253,0.0,0.0,90,0.00,,,0.01,meteohub,2013-01-08 05:20:00,
2013-01-07 21:25:00,50.4,47.3,30.19,WSW,253,0.0,0.0,89,0.00,,,0.01,meteohub,2013-01-08 05:25:00,
2013-01-07 21:30:00,50.4,47.3,30.19,WSW,253,0.0,1.0,89,0.00,,,0.01,meteohub,2013-01-08 05:30:00,
2013-01-07 21:35:00,50.2,47.3,30.19,WSW,253,0.0,0.0,90,0.00,,,0.01,meteohub,2013-01-08 05:35:00,
2013-01-07 21:40:00,50.2,47.3,30.18,WSW,253,1.0,3.0,90,0.00,,,0.01,meteohub,2013-01-08 05:40:00,
2013-01-07 21:45:00,50.4,47.5,30.18,WSW,253,3.0,4.0,90,0.00,,,0.01,meteohub,2013-01-08 05:45:00,
2013-01-07 21:50:00,50.5,47.7,30.18,WSW,253,3.0,4.0,90,0.00,,,0.01,meteohub,2013-01-08 05:50:00,
2013-01-07 21:55:00,50.5,47.5,30.18,WSW,253,3.0,4.0,89,0.00,,,0.01,meteohub,2013-01-08 05:55:00,
2013-01-07 22:03:00,50.7,47.7,30.18,WSW,253,0.0,5.0,89,0.00,,,0.01,meteohub,2013-01-08 06:03:00,
2013-01-07 22:09:00,50.7,47.3,30.18,WSW,253,0.0,5.0,88,0.00,,,0.01,meteohub,2013-01-08 06:09:00,
2013-01-07 22:14:00,50.7,47.3,30.18,WSW,253,3.0,5.0,88,0.00,,,0.01,meteohub,2013-01-08 06:14:00,
2013-01-07 22:19:00,50.7,47.3,30.18,WSW,253,0.0,4.0,88,0.00,,,0.01,meteohub,2013-01-08 06:19:00,
2013-01-07 22:24:00,50.7,47.3,30.18,WSW,253,0.0,4.0,88,0.00,,,0.01,meteohub,2013-01-08 06:24:00,
2013-01-07 22:29:00,50.7,47.3,30.19,WSW,253,0.0,4.0,88,0.00,,,0.01,meteohub,2013-01-08 06:29:00,
2013-01-07 22:34:00,50.7,47.3,30.19,WSW,253,0.0,4.0,88,0.00,,,0.01,meteohub,2013-01-08 06:34:00,
2013-01-07 22:39:00,50.5,47.1,30.19,WSW,253,0.0,3.0,88,0.00,,,0.01,meteohub,2013-01-08 06:39:00,
2013-01-07 22:44:00,50.5,47.1,30.19,WSW,253,0.0,3.0,88,0.00,,,0.01,meteohub,2013-01-08 06:44:00,
2013-01-07 22:49:00,50.4,46.9,30.19,WSW,253,0.0,3.0,88,0.00,,,0.01,meteohub,2013-01-08 06:49:00,
2013-01-07 22:54:00,50.2,46.8,30.19,WSW,253,0.0,0.0,88,0.00,,,0.01,meteohub,2013-01-08 06:54:00,
2013-01-07 22:59:00,50.2,46.8,30.19,WSW,253,0.0,0.0,88,0.00,,,0.01,meteohub,2013-01-08 06:59:00,
2013-01-07 23:04:00,50.0,46.9,30.19,WSW,253,0.0,0.0,89,0.00,,,0.01,meteohub,2013-01-08 07:04:00,
2013-01-07 23:09:00,50.0,46.9,30.19,WSW,253,0.0,0.0,89,0.00,,,0.01,meteohub,2013-01-08 07:09:00,
2013-01-07 23:14:00,49.8,46.8,30.19,WSW,253,0.0,0.0,89,0.00,,,0.01,meteohub,2013-01-08 07:14:00,
2013-01-07 23:19:00,49.8,46.8,30.19,WSW,253,0.0,0.0,89,0.00,,,0.01,meteohub,2013-01-08 07:19:00,
2013-01-07 23:24:00,49.6,46.6,30.19,WSW,253,0.0,0.0,89,0.00,,,0.01,meteohub,2013-01-08 07:24:00,
2013-01-07 23:30:00,49.5,46.4,30.19,WSW,253,0.0,0.0,89,0.00,,,0.01,meteohub,2013-01-08 07:30:00,
2013-01-07 23:35:00,49.5,46.6,30.19,WSW,253,0.0,0.0,90,0.00,,,0.01,meteohub,2013-01-08 07:35:00,
2013-01-07 23:40:00,49.5,46.6,30.19,WSW,253,0.0,0.0,90,0.00,,,0.01,meteohub,2013-01-08 07:40:00,
2013-01-07 23:45:00,49.3,46.4,30.19,WSW,253,0.0,0.0,90,0.00,,,0.01,meteohub,2013-01-08 07:45:00,
2013-01-07 23:50:00,49.1,46.2,30.19,WSW,253,0.0,0.0,90,0.00,,,0.01,meteohub,2013-01-08 07:50:00,
2013-01-07 23:55:00,48.9,46.0,30.19,WSW,253,0.0,0.0,90,0.00,,,0.01,meteohub,2013-01-08 07:55:00,